createdAt,value
2023-05-11T00:01:49.067Z,19.20
2023-05-11T00:04:16.178Z,19.20
2023-05-11T00:06:43.068Z,19.20
2023-05-11T00:09:11.160Z,19.20
2023-05-11T00:11:38.220Z,19.20
2023-05-11T00:14:05.063Z,19.10
2023-05-11T00:16:32.060Z,19.10
2023-05-11T00:18:59.107Z,19.10
2023-05-11T00:21:26.412Z,19.10
2023-05-11T00:23:53.307Z,19.10
2023-05-11T00:26:20.135Z,19.10
2023-05-11T00:28:47.625Z,19.10
2023-05-11T00:31:14.599Z,19.00
2023-05-11T00:33:41.429Z,19.00
2023-05-11T00:36:08.555Z,19.00
2023-05-11T00:38:36.712Z,19.00
2023-05-11T00:41:03.503Z,18.90
2023-05-11T00:43:30.432Z,18.90
2023-05-11T00:45:57.349Z,18.90
2023-05-11T00:48:24.209Z,18.90
2023-05-11T00:50:51.186Z,18.90
2023-05-11T00:53:18.100Z,18.90
2023-05-11T00:55:44.871Z,18.80
2023-05-11T00:58:12.085Z,18.80
2023-05-11T01:00:39.257Z,18.80
2023-05-11T01:03:07.277Z,18.80
2023-05-11T01:05:47.130Z,18.80
2023-05-11T01:08:32.460Z,18.70
2023-05-11T01:11:23.162Z,18.80
2023-05-11T01:13:55.636Z,18.70
2023-05-11T01:16:26.747Z,18.70
2023-05-11T01:19:04.214Z,18.70
2023-05-11T01:21:34.594Z,18.60
2023-05-11T01:24:13.465Z,18.60
2023-05-11T01:27:03.132Z,18.60
2023-05-11T01:29:45.497Z,18.50
2023-05-11T01:32:25.959Z,18.60
2023-05-11T01:35:08.399Z,18.50
2023-05-11T01:37:36.938Z,18.50
2023-05-11T01:40:10.266Z,18.50
2023-05-11T01:42:45.647Z,18.50
2023-05-11T01:45:14.400Z,18.50
2023-05-11T01:47:43.558Z,18.40
2023-05-11T01:50:11.404Z,18.40
2023-05-11T01:52:40.310Z,18.40
2023-05-11T01:55:08.493Z,18.40
2023-05-11T01:57:36.907Z,18.40
2023-05-11T02:00:04.840Z,18.40
2023-05-11T02:02:40.943Z,18.30
2023-05-11T02:05:08.753Z,18.30
2023-05-11T02:07:38.167Z,18.30
2023-05-11T02:10:05.716Z,18.30
2023-05-11T02:12:35.527Z,18.30
2023-05-11T02:15:04.671Z,18.30
2023-05-11T02:17:33.951Z,18.30
2023-05-11T02:20:01.832Z,18.30
2023-05-11T02:22:30.848Z,18.30
2023-05-11T02:24:57.785Z,18.20
2023-05-11T02:27:25.160Z,18.20
2023-05-11T02:29:52.414Z,18.30
2023-05-11T02:32:22.773Z,18.20
2023-05-11T02:35:12.980Z,18.20
2023-05-11T02:37:47.339Z,18.20
2023-05-11T02:40:19.491Z,18.20
2023-05-11T02:42:55.025Z,18.20
2023-05-11T02:45:23.405Z,18.10
2023-05-11T02:47:56.059Z,18.10
2023-05-11T02:50:30.359Z,18.10
2023-05-11T02:53:02.201Z,18.10
2023-05-11T02:55:30.609Z,18.10
2023-05-11T02:57:57.782Z,18.10
2023-05-11T03:00:25.711Z,18.00
2023-05-11T03:02:53.033Z,18.00
2023-05-11T03:05:21.684Z,18.00
2023-05-11T03:07:48.517Z,18.00
2023-05-11T03:10:15.487Z,18.00
2023-05-11T03:12:46.114Z,18.00
2023-05-11T03:15:15.687Z,18.00
2023-05-11T03:17:46.262Z,18.00
2023-05-11T03:20:16.542Z,17.90
2023-05-11T03:22:45.569Z,17.90
2023-05-11T03:25:14.441Z,17.90
2023-05-11T03:27:43.525Z,17.90
2023-05-11T03:30:12.514Z,17.90
2023-05-11T03:32:43.969Z,17.90
2023-05-11T03:35:11.208Z,17.90
2023-05-11T03:37:39.026Z,17.90
2023-05-11T03:40:08.660Z,17.80
2023-05-11T03:42:46.876Z,17.80
2023-05-11T03:45:17.275Z,17.80
2023-05-11T03:47:46.591Z,17.80
2023-05-11T03:50:15.036Z,17.80
2023-05-11T03:52:42.330Z,17.80
2023-05-11T03:55:09.957Z,17.80
2023-05-11T03:57:36.800Z,17.80
2023-05-11T04:00:03.999Z,17.80
2023-05-11T04:02:31.176Z,17.80
2023-05-11T04:04:57.983Z,17.80
2023-05-11T04:07:24.910Z,17.80
2023-05-11T04:09:51.774Z,17.70
2023-05-11T04:12:18.608Z,17.70
2023-05-11T04:14:45.866Z,17.70
2023-05-11T04:17:12.722Z,17.70
2023-05-11T04:19:39.544Z,17.70
2023-05-11T04:22:06.376Z,17.70
2023-05-11T04:24:33.189Z,17.70
2023-05-11T04:26:59.963Z,17.70
2023-05-11T04:29:27.236Z,17.70
2023-05-11T04:31:54.120Z,17.70
2023-05-11T04:34:21.787Z,17.70
2023-05-11T04:36:49.449Z,17.70
2023-05-11T04:39:17.527Z,17.70
2023-05-11T04:41:44.445Z,17.70
2023-05-11T04:44:12.020Z,17.70
2023-05-11T04:46:39.239Z,17.70
2023-05-11T04:49:07.496Z,17.60
2023-05-11T04:51:36.442Z,17.60
2023-05-11T04:54:03.278Z,17.70
2023-05-11T04:56:30.069Z,17.70
2023-05-11T04:58:56.885Z,17.60
2023-05-11T05:01:24.120Z,17.60
2023-05-11T05:03:52.194Z,17.60
2023-05-11T05:06:19.318Z,17.60
2023-05-11T05:08:46.111Z,17.70
2023-05-11T05:11:13.083Z,17.60
2023-05-11T05:13:40.386Z,17.60
2023-05-11T05:16:07.354Z,17.70
2023-05-11T05:18:34.546Z,17.60
2023-05-11T05:21:01.463Z,17.60
2023-05-11T05:23:28.477Z,17.60
2023-05-11T05:25:55.320Z,17.60
2023-05-11T05:28:22.257Z,17.60
2023-05-11T05:30:49.244Z,17.70
2023-05-11T05:33:16.088Z,17.70
2023-05-11T05:35:44.090Z,17.70
2023-05-11T05:38:11.659Z,17.70
2023-05-11T05:40:39.612Z,17.70
2023-05-11T05:43:07.567Z,17.70
2023-05-11T05:45:34.417Z,17.70
2023-05-11T05:48:02.275Z,17.70
2023-05-11T05:50:29.391Z,17.70
2023-05-11T05:52:57.202Z,17.70
2023-05-11T05:55:25.941Z,17.70
2023-05-11T05:57:53.665Z,17.80
2023-05-11T06:00:20.716Z,17.70
2023-05-11T06:02:55.500Z,17.80
2023-05-11T06:05:26.002Z,17.80
2023-05-11T06:08:05.938Z,17.80
2023-05-11T06:10:36.491Z,17.80
2023-05-11T06:13:03.630Z,17.80
2023-05-11T06:15:30.538Z,17.80
2023-05-11T06:18:05.511Z,17.80
2023-05-11T06:20:32.612Z,17.80
2023-05-11T06:22:59.990Z,17.80
2023-05-11T06:25:27.839Z,17.80
2023-05-11T06:27:54.732Z,17.80
2023-05-11T06:30:21.786Z,17.80
2023-05-11T06:32:51.244Z,17.80
2023-05-11T06:35:20.192Z,17.80
2023-05-11T06:37:47.275Z,17.80
2023-05-11T06:40:16.362Z,17.80
2023-05-11T06:42:43.716Z,17.80
2023-05-11T06:45:11.561Z,17.90
2023-05-11T06:47:42.278Z,17.80
2023-05-11T06:50:09.908Z,17.80
2023-05-11T06:52:37.952Z,17.80
2023-05-11T06:55:05.188Z,17.80
2023-05-11T06:57:32.121Z,17.90
2023-05-11T06:59:59.005Z,17.80
2023-05-11T07:02:25.827Z,17.90
2023-05-11T07:04:52.777Z,17.90
2023-05-11T07:07:19.632Z,17.90
2023-05-11T07:09:46.764Z,17.90
2023-05-11T07:12:13.588Z,17.90
2023-05-11T07:14:40.516Z,17.90
2023-05-11T07:17:07.322Z,17.90
2023-05-11T07:19:34.166Z,18.00
2023-05-11T07:22:02.425Z,18.00
2023-05-11T07:24:29.325Z,18.00
2023-05-11T07:26:57.428Z,18.00
2023-05-11T07:29:24.422Z,18.00
2023-05-11T07:31:51.671Z,18.00
2023-05-11T07:34:18.528Z,18.10
2023-05-11T07:36:46.434Z,18.10
2023-05-11T07:39:13.385Z,18.10
2023-05-11T07:41:40.203Z,18.10
2023-05-11T07:44:07.050Z,18.10
2023-05-11T07:46:33.861Z,18.10
2023-05-11T07:49:14.365Z,18.10
2023-05-11T07:51:42.696Z,18.20
2023-05-11T07:54:10.129Z,18.20
2023-05-11T07:56:36.972Z,18.20
2023-05-11T07:59:03.782Z,18.20
2023-05-11T08:01:30.604Z,18.20
2023-05-11T08:03:57.397Z,18.20
2023-05-11T08:06:24.462Z,18.20
2023-05-11T08:08:51.485Z,18.20
2023-05-11T08:11:18.238Z,18.20
2023-05-11T08:13:45.023Z,18.30
2023-05-11T08:16:11.843Z,18.30
2023-05-11T08:18:38.823Z,18.30
2023-05-11T08:21:07.443Z,18.30
2023-05-11T08:23:34.346Z,18.40
2023-05-11T08:26:01.205Z,18.40
2023-05-11T08:28:28.004Z,18.40
2023-05-11T08:30:58.776Z,18.40
2023-05-11T08:33:37.673Z,18.40
2023-05-11T08:36:06.436Z,18.50
2023-05-11T08:38:35.010Z,18.50
2023-05-11T08:41:02.545Z,18.50
2023-05-11T08:43:30.372Z,18.60
2023-05-11T08:46:02.686Z,18.60
2023-05-11T08:48:29.827Z,18.60
2023-05-11T08:50:57.022Z,18.60
2023-05-11T08:53:23.876Z,18.70
2023-05-11T08:55:51.534Z,18.70
2023-05-11T08:58:21.882Z,18.70
2023-05-11T09:00:49.758Z,18.70
2023-05-11T09:03:18.133Z,18.70
2023-05-11T09:05:46.967Z,18.80
2023-05-11T09:08:15.690Z,18.80
2023-05-11T09:10:43.633Z,18.80
2023-05-11T09:13:10.988Z,18.90
2023-05-11T09:15:38.369Z,18.90
2023-05-11T09:18:06.007Z,18.90
2023-05-11T09:20:34.186Z,18.90
2023-05-11T09:23:01.796Z,19.00
2023-05-11T09:25:34.944Z,19.00
2023-05-11T09:28:01.989Z,19.00
2023-05-11T09:30:28.899Z,19.10
2023-05-11T09:32:58.253Z,19.10
2023-05-11T09:35:32.732Z,19.20
2023-05-11T09:37:59.488Z,19.20
2023-05-11T09:40:34.354Z,19.20
2023-05-11T09:43:02.399Z,19.30
2023-05-11T09:45:49.852Z,19.30
2023-05-11T09:48:16.926Z,19.30
2023-05-11T09:50:44.056Z,19.30
2023-05-11T09:53:12.133Z,19.30
2023-05-11T09:55:38.935Z,19.40
2023-05-11T09:58:05.680Z,19.30
2023-05-11T10:00:32.589Z,19.40
2023-05-11T10:03:07.981Z,19.40
2023-05-11T10:05:36.583Z,19.40
2023-05-11T10:08:05.057Z,19.40
2023-05-11T10:10:33.716Z,19.40
2023-05-11T10:13:02.953Z,19.40
2023-05-11T10:15:32.284Z,19.50
2023-05-11T10:18:02.633Z,19.50
2023-05-11T10:20:29.496Z,19.50
2023-05-11T10:22:56.468Z,19.50
2023-05-11T10:25:25.274Z,19.60
2023-05-11T10:27:52.337Z,19.50
2023-05-11T10:30:19.775Z,19.60
2023-05-11T10:32:47.357Z,19.60
2023-05-11T10:35:14.786Z,19.60
2023-05-11T10:37:44.856Z,19.60
2023-05-11T10:40:11.989Z,19.60
2023-05-11T10:42:50.897Z,19.60
2023-05-11T10:45:27.225Z,19.60
2023-05-11T10:48:31.946Z,19.60
2023-05-11T10:51:16.548Z,19.60
2023-05-11T10:54:07.476Z,19.70
2023-05-11T10:56:41.520Z,19.70
2023-05-11T10:59:39.132Z,19.70
2023-05-11T11:02:06.552Z,19.70
2023-05-11T11:04:46.923Z,19.70
2023-05-11T11:07:18.169Z,19.70
2023-05-11T11:09:52.524Z,19.70
2023-05-11T11:12:21.054Z,19.70
2023-05-11T11:15:02.770Z,19.70
2023-05-11T11:17:32.223Z,19.70
2023-05-11T11:20:01.322Z,19.70
2023-05-11T11:22:41.629Z,19.70
2023-05-11T11:25:13.450Z,19.70
2023-05-11T11:27:40.172Z,19.70
2023-05-11T11:30:22.892Z,19.70
2023-05-11T11:32:52.054Z,19.80
2023-05-11T11:35:41.505Z,19.80
2023-05-11T11:38:16.762Z,19.70
2023-05-11T11:40:51.330Z,19.80
2023-05-11T11:43:22.006Z,19.80
2023-05-11T11:45:59.689Z,19.80
2023-05-11T11:48:35.680Z,19.80
2023-05-11T11:51:07.413Z,19.80
2023-05-11T11:53:46.218Z,19.90
2023-05-11T11:56:15.911Z,19.90
2023-05-11T11:58:43.242Z,20.00
2023-05-11T12:01:12.063Z,20.00
2023-05-11T12:03:41.856Z,20.10
2023-05-11T12:06:12.164Z,20.10
2023-05-11T12:08:40.741Z,20.10
2023-05-11T12:11:08.063Z,20.10
2023-05-11T12:13:35.829Z,20.10
2023-05-11T12:16:12.436Z,20.20
2023-05-11T12:18:40.265Z,20.20
2023-05-11T12:21:07.075Z,20.20
2023-05-11T12:23:33.875Z,20.20
2023-05-11T12:26:04.924Z,20.30
2023-05-11T12:28:33.074Z,20.30
2023-05-11T12:31:00.780Z,20.30
2023-05-11T12:33:28.262Z,20.30
2023-05-11T12:35:56.781Z,20.30
2023-05-11T12:38:23.744Z,20.30
2023-05-11T12:40:52.148Z,20.40
2023-05-11T12:43:21.059Z,20.40
2023-05-11T12:45:48.163Z,20.40
2023-05-11T12:48:15.874Z,20.50
2023-05-11T12:50:46.554Z,20.50
2023-05-11T12:53:19.136Z,20.50
2023-05-11T12:55:57.192Z,20.50
2023-05-11T12:58:24.114Z,20.60
2023-05-11T13:00:58.751Z,20.60
2023-05-11T13:03:27.491Z,20.60
2023-05-11T13:06:09.011Z,20.60
2023-05-11T13:08:37.747Z,20.60
2023-05-11T13:11:25.956Z,20.60
2023-05-11T13:13:54.439Z,20.60
2023-05-11T13:16:29.124Z,20.70
2023-05-11T13:19:00.707Z,20.60
2023-05-11T13:21:29.821Z,20.70
2023-05-11T13:28:10.173Z,20.60
2023-05-11T13:30:37.539Z,20.70
2023-05-11T13:33:04.434Z,20.70
2023-05-11T13:35:31.426Z,20.70
2023-05-11T13:37:58.593Z,20.60
2023-05-11T13:40:25.497Z,20.60
2023-05-11T13:42:52.352Z,20.60
2023-05-11T13:45:19.344Z,20.60
2023-05-11T13:47:46.642Z,20.60
2023-05-11T13:50:13.709Z,20.60
2023-05-11T13:52:40.534Z,20.60
2023-05-11T13:55:07.900Z,20.60
2023-05-11T13:57:35.070Z,20.60
2023-05-11T14:00:01.952Z,20.60
2023-05-11T14:02:38.701Z,20.60
2023-05-11T14:05:05.892Z,20.60
2023-05-11T14:07:45.758Z,20.60
2023-05-11T14:10:14.594Z,20.60
2023-05-11T14:12:41.630Z,20.60
2023-05-11T14:15:09.104Z,20.60
2023-05-11T14:17:36.186Z,20.60
2023-05-11T14:20:04.235Z,20.70
2023-05-11T14:22:31.087Z,20.70
2023-05-11T14:24:57.902Z,20.70
2023-05-11T14:27:24.847Z,20.70
2023-05-11T14:29:52.265Z,20.70
2023-05-11T14:32:19.522Z,20.70
2023-05-11T14:34:46.889Z,20.80
2023-05-11T14:37:14.291Z,20.70
2023-05-11T14:39:41.383Z,20.80
2023-05-11T14:42:08.649Z,20.70
2023-05-11T14:49:04.246Z,20.70
2023-05-11T14:56:05.834Z,20.70
2023-05-11T14:58:34.496Z,20.70
2023-05-11T15:01:01.354Z,20.70
2023-05-11T15:03:28.255Z,20.70
2023-05-11T15:05:55.144Z,20.60
2023-05-11T15:08:29.791Z,20.60
2023-05-11T15:10:58.382Z,20.60
2023-05-11T15:13:25.579Z,20.60
2023-05-11T15:15:52.696Z,20.60
2023-05-11T15:18:19.757Z,20.60
2023-05-11T15:20:46.745Z,20.50
2023-05-11T15:23:17.087Z,20.50
2023-05-11T15:25:45.131Z,20.40
2023-05-11T15:28:12.376Z,20.40
2023-05-11T15:30:41.350Z,20.30
2023-05-11T15:33:09.020Z,20.30
2023-05-11T15:35:38.719Z,20.30
2023-05-11T15:38:06.116Z,20.20
2023-05-11T15:40:33.025Z,20.20
2023-05-11T15:43:00.585Z,20.20
2023-05-11T15:45:27.875Z,20.10
2023-05-11T15:47:54.865Z,20.10
2023-05-11T15:50:22.373Z,20.10
2023-05-11T15:52:49.453Z,20.10
2023-05-11T15:55:16.379Z,20.10
2023-05-11T15:57:43.309Z,20.00
2023-05-11T16:00:11.545Z,20.00
2023-05-11T16:02:38.716Z,20.00
2023-05-11T16:05:06.027Z,20.00
2023-05-11T16:07:32.855Z,20.00
2023-05-11T16:09:59.673Z,19.90
2023-05-11T16:12:26.717Z,19.90
2023-05-11T16:14:53.484Z,19.90
2023-05-11T16:17:20.493Z,20.00
2023-05-11T16:19:47.473Z,19.90
2023-05-11T16:22:14.754Z,19.90
2023-05-11T16:24:41.783Z,19.90
2023-05-11T16:27:08.746Z,19.90
2023-05-11T16:29:36.012Z,19.80
2023-05-11T16:32:02.990Z,19.80
2023-05-11T16:34:30.163Z,19.90
2023-05-11T16:36:58.930Z,19.80
2023-05-11T16:39:26.891Z,19.80
2023-05-11T16:41:53.691Z,19.80
2023-05-11T16:44:21.139Z,19.80
2023-05-11T16:46:48.790Z,19.70
2023-05-11T16:49:16.154Z,19.70
2023-05-11T16:51:43.411Z,19.70
2023-05-11T16:54:12.866Z,19.70
2023-05-11T16:56:39.683Z,19.70
2023-05-11T16:59:06.531Z,19.70
2023-05-11T17:01:34.165Z,19.70
2023-05-11T17:04:01.210Z,19.70
2023-05-11T17:06:28.233Z,19.60
2023-05-11T17:08:55.106Z,19.60
2023-05-11T17:11:21.992Z,19.70
2023-05-11T17:13:48.777Z,19.70
2023-05-11T17:16:16.002Z,19.60
2023-05-11T17:18:42.953Z,19.60
2023-05-11T17:21:10.572Z,19.60
2023-05-11T17:23:37.912Z,19.60
2023-05-11T17:26:12.025Z,19.60
2023-05-11T17:28:39.986Z,19.60
2023-05-11T17:31:11.964Z,19.60
2023-05-11T17:33:39.579Z,19.60
2023-05-11T17:36:07.404Z,19.60
2023-05-11T17:38:34.253Z,19.60
2023-05-11T17:41:04.837Z,19.60
2023-05-11T17:43:33.036Z,19.60
2023-05-11T17:46:00.510Z,19.60
2023-05-11T17:48:27.444Z,19.60
2023-05-11T17:50:54.462Z,19.60
2023-05-11T17:53:21.294Z,19.60
2023-05-11T17:55:48.129Z,19.60
2023-05-11T17:58:15.000Z,19.60
2023-05-11T18:00:41.793Z,19.50
2023-05-11T18:03:08.753Z,19.50
2023-05-11T18:05:47.543Z,19.50
2023-05-11T18:08:14.710Z,19.50
2023-05-11T18:10:41.938Z,19.50
2023-05-11T18:13:09.381Z,19.50
2023-05-11T18:15:36.323Z,19.50
2023-05-11T18:18:03.511Z,19.50
2023-05-11T18:20:31.219Z,19.50
2023-05-11T18:22:58.246Z,19.50
2023-05-11T18:25:27.862Z,19.50
2023-05-11T18:27:55.229Z,19.50
2023-05-11T18:30:22.765Z,19.50
2023-05-11T18:32:50.368Z,19.40
2023-05-11T18:35:18.638Z,19.40
2023-05-11T18:37:45.667Z,19.40
2023-05-11T18:40:13.088Z,19.40
2023-05-11T18:42:39.965Z,19.40
2023-05-11T18:45:07.716Z,19.40
2023-05-11T18:47:35.588Z,19.40
2023-05-11T18:50:03.396Z,19.30
2023-05-11T18:52:30.361Z,19.30
2023-05-11T18:54:58.468Z,19.30
2023-05-11T18:57:25.680Z,19.30
2023-05-11T18:59:52.922Z,19.20
2023-05-11T19:02:19.975Z,19.20
2023-05-11T19:04:46.965Z,19.20
2023-05-11T19:07:13.761Z,19.20
2023-05-11T19:09:40.944Z,19.20
2023-05-11T19:12:08.974Z,19.20
2023-05-11T19:14:37.409Z,19.10
2023-05-11T19:17:05.289Z,19.10
2023-05-11T19:19:32.267Z,19.10
2023-05-11T19:21:59.376Z,19.10
2023-05-11T19:24:26.554Z,19.10
2023-05-11T19:27:05.950Z,19.10
2023-05-11T19:29:34.090Z,19.00
2023-05-11T19:32:01.178Z,19.00
2023-05-11T19:34:28.289Z,19.00
2023-05-11T19:36:55.517Z,19.00
2023-05-11T19:39:22.598Z,19.00
2023-05-11T19:41:49.763Z,19.10
2023-05-11T19:44:16.801Z,19.00
2023-05-11T19:46:47.007Z,19.00
2023-05-11T19:49:15.434Z,19.00
2023-05-11T19:51:43.228Z,19.00
2023-05-11T19:54:11.474Z,19.00
2023-05-11T19:56:39.363Z,19.00
2023-05-11T19:59:06.777Z,19.00
2023-05-11T20:01:33.919Z,18.90
2023-05-11T20:04:01.213Z,18.90
2023-05-11T20:06:28.435Z,18.90
2023-05-11T20:08:56.464Z,18.90
2023-05-11T20:11:25.270Z,18.90
2023-05-11T20:13:53.438Z,18.90
2023-05-11T20:16:20.278Z,18.90
2023-05-11T20:18:47.422Z,18.90
2023-05-11T20:21:14.256Z,18.80
2023-05-11T20:23:41.083Z,18.80
2023-05-11T20:26:07.853Z,18.80
2023-05-11T20:28:34.725Z,18.80
2023-05-11T20:31:01.648Z,18.80
2023-05-11T20:35:59.024Z,18.80
2023-05-11T20:38:25.954Z,18.80
2023-05-11T20:40:57.988Z,18.80
2023-05-11T20:43:27.974Z,18.70
2023-05-11T20:45:55.020Z,18.70
2023-05-11T20:48:32.451Z,18.70
2023-05-11T20:51:06.285Z,18.70
2023-05-11T20:53:33.365Z,18.70
2023-05-11T20:56:02.442Z,18.70
2023-05-11T20:58:30.834Z,18.70
2023-05-11T21:00:57.877Z,18.60
2023-05-11T21:03:26.783Z,18.60
2023-05-11T21:05:53.840Z,18.60
2023-05-11T21:08:20.722Z,18.60
2023-05-11T21:10:47.647Z,18.60
2023-05-11T21:13:14.915Z,18.60
2023-05-11T21:15:41.804Z,18.60
2023-05-11T21:18:08.792Z,18.60
2023-05-11T21:20:36.191Z,18.60
2023-05-11T21:23:03.728Z,18.60
2023-05-11T21:25:30.588Z,18.60
2023-05-11T21:27:57.592Z,18.60
2023-05-11T21:30:24.384Z,18.60
2023-05-11T21:32:51.174Z,18.60
2023-05-11T21:35:18.679Z,18.60
2023-05-11T21:37:49.286Z,18.50
2023-05-11T21:40:17.311Z,18.60
2023-05-11T21:42:44.383Z,18.60
2023-05-11T21:45:12.072Z,18.60
2023-05-11T21:47:39.399Z,18.60
2023-05-11T21:50:08.002Z,18.50
2023-05-11T21:52:34.960Z,18.50
2023-05-11T21:55:01.930Z,18.50
2023-05-11T21:57:29.340Z,18.60
2023-05-11T21:59:56.145Z,18.50
2023-05-11T22:02:23.413Z,18.50
2023-05-11T22:04:51.650Z,18.50
2023-05-11T22:07:18.450Z,18.50
2023-05-11T22:09:45.373Z,18.50
2023-05-11T22:12:12.186Z,18.50
2023-05-11T22:14:39.037Z,18.50
2023-05-11T22:17:06.186Z,18.50
2023-05-11T22:19:33.497Z,18.50
2023-05-11T22:22:00.452Z,18.50
2023-05-11T22:24:27.460Z,18.50
2023-05-11T22:26:54.748Z,18.50
2023-05-11T22:29:22.096Z,18.50
2023-05-11T22:31:49.270Z,18.50
2023-05-11T22:34:16.220Z,18.50
2023-05-11T22:36:43.201Z,18.50
2023-05-11T22:39:11.390Z,18.50
2023-05-11T22:41:38.592Z,18.40
2023-05-11T22:44:05.667Z,18.50
2023-05-11T22:46:32.572Z,18.40
2023-05-11T22:48:59.513Z,18.50
2023-05-11T22:51:27.004Z,18.40
2023-05-11T22:53:54.706Z,18.40
2023-05-11T22:56:22.257Z,18.40
2023-05-11T22:58:50.264Z,18.40
2023-05-11T23:01:17.156Z,18.40
2023-05-11T23:03:44.075Z,18.40
2023-05-11T23:06:11.626Z,18.40
2023-05-11T23:08:39.362Z,18.40
2023-05-11T23:11:07.497Z,18.40
2023-05-11T23:13:35.116Z,18.40
2023-05-11T23:16:03.846Z,18.40
2023-05-11T23:18:32.086Z,18.40
2023-05-11T23:21:00.300Z,18.40
2023-05-11T23:23:27.182Z,18.40
2023-05-11T23:25:54.012Z,18.40
2023-05-11T23:28:20.861Z,18.40
2023-05-11T23:30:47.673Z,18.30
2023-05-11T23:33:15.116Z,18.30
2023-05-11T23:35:41.989Z,18.40
2023-05-11T23:38:08.843Z,18.30
2023-05-11T23:40:36.582Z,18.30
2023-05-11T23:43:03.428Z,18.30
2023-05-11T23:45:30.738Z,18.30
2023-05-11T23:47:57.526Z,18.30
2023-05-11T23:50:24.488Z,18.30
2023-05-11T23:52:51.352Z,18.30
2023-05-11T23:55:18.353Z,18.30
2023-05-11T23:57:45.288Z,18.30
